Time;durP1;ratioP1;P1;durP2;ratioP2;P2;SDS_P1;SDS_P2;PMS_P1;PMS_P2;Temp;Humidity;BMP_temperature;BMP_pressure;BME280_temperature;BME280_humidity;BME280_pressure;Samples;Min_cycle;Max_cycle;Signal;HPM_P1;HPM_P2
2023/05/01 00:00:03;;;;;;;7.95;4.93;;;;;;;8.20;100.00;98749.78;5032139;28;20589;-74
2023/05/01 00:02:29;;;;;;;8.50;4.85;;;;;;;8.08;100.00;98748.56;5053344;28;20033;-74
2023/05/01 00:04:55;;;;;;;8.20;5.13;;;;;;;7.92;100.00;98752.31;5027669;28;20036;-74
2023/05/01 00:07:20;;;;;;;9.77;5.25;;;;;;;7.76;100.00;98745.28;5026035;28;20396;-73
2023/05/01 00:09:45;;;;;;;12.18;5.75;;;;;;;7.73;100.00;98758.25;5022463;28;20029;-74
2023/05/01 00:12:11;;;;;;;8.77;5.75;;;;;;;7.59;100.00;98735.72;5033948;28;20475;-74
2023/05/01 00:14:36;;;;;;;10.60;6.43;;;;;;;7.57;100.00;98744.00;5033226;28;20025;-74
2023/05/01 00:17:02;;;;;;;10.35;5.47;;;;;;;7.61;100.00;98739.06;5037443;28;20029;-75
2023/05/01 00:19:27;;;;;;;11.07;5.95;;;;;;;7.68;100.00;98738.13;5052754;28;20021;-74
2023/05/01 00:21:52;;;;;;;9.73;5.80;;;;;;;7.72;100.00;98732.34;5052780;28;20033;-74
2023/05/01 00:24:18;;;;;;;12.45;5.97;;;;;;;7.68;100.00;98734.59;5043076;28;20040;-73
2023/05/01 00:26:43;;;;;;;9.95;6.32;;;;;;;7.72;100.00;98730.50;5034632;28;20068;-74
2023/05/01 00:29:09;;;;;;;9.65;6.00;;;;;;;7.75;100.00;98735.50;5019691;28;20021;-74
2023/05/01 00:31:35;;;;;;;11.27;6.47;;;;;;;7.73;100.00;98728.63;5022106;28;20093;-74
2023/05/01 00:34:00;;;;;;;9.25;6.20;;;;;;;7.65;100.00;98716.09;5035609;28;20025;-73
2023/05/01 00:36:26;;;;;;;9.02;5.82;;;;;;;7.70;100.00;98721.75;5035614;28;20128;-74
2023/05/01 00:38:51;;;;;;;12.32;6.40;;;;;;;7.58;100.00;98713.34;5034944;28;20056;-74
2023/05/01 00:41:16;;;;;;;11.48;6.78;;;;;;;7.49;100.00;98702.84;5031789;28;20028;-74
2023/05/01 00:43:42;;;;;;;10.15;7.10;;;;;;;7.55;100.00;98721.78;5029857;28;20482;-75
2023/05/01 00:46:08;;;;;;;13.13;6.93;;;;;;;7.50;100.00;98715.28;5030414;28;20134;-73
2023/05/01 00:48:34;;;;;;;10.82;6.32;;;;;;;7.40;100.00;98712.88;5025557;28;20413;-73
2023/05/01 00:51:03;;;;;;;10.02;6.40;;;;;;;7.34;100.00;98708.25;5016658;28;20033;-73
2023/05/01 00:53:29;;;;;;;9.38;6.28;;;;;;;7.38;100.00;98717.59;5023058;28;20032;-74
2023/05/01 00:55:57;;;;;;;9.90;6.38;;;;;;;7.35;100.00;98715.28;5019827;28;20038;-75
2023/05/01 00:58:23;;;;;;;10.23;6.28;;;;;;;7.34;100.00;98705.56;5033618;28;20159;-75
2023/05/01 01:00:48;;;;;;;13.18;6.40;;;;;;;7.25;100.00;98697.53;5027795;28;20108;-74
2023/05/01 01:03:13;;;;;;;11.82;6.45;;;;;;;7.35;100.00;98705.34;5032385;28;20116;-74
2023/05/01 01:05:45;;;;;;;14.30;6.13;;;;;;;7.44;100.00;98708.78;5023808;28;20022;-74
2023/05/01 01:08:29;;;;;;;9.48;6.05;;;;;;;7.35;100.00;98685.69;5013261;28;20037;-74
2023/05/01 01:11:13;;;;;;;9.50;6.35;;;;;;;7.40;100.00;98699.41;5018524;28;20029;-74
2023/05/01 01:13:46;;;;;;;9.60;6.15;;;;;;;7.40;100.00;98694.03;5004140;28;20106;-75
2023/05/01 01:16:22;;;;;;;10.90;6.30;;;;;;;7.50;100.00;98696.44;5026265;28;20017;-74
2023/05/01 01:18:49;;;;;;;9.52;6.53;;;;;;;7.58;100.00;98693.66;5029802;28;20025;-75
2023/05/01 01:21:30;;;;;;;8.40;6.10;;;;;;;7.62;100.00;98690.41;5031060;28;20025;-74
2023/05/01 01:24:10;;;;;;;9.43;6.30;;;;;;;7.67;100.00;98685.28;5032642;28;20483;-74
2023/05/01 01:27:01;;;;;;;10.30;6.03;;;;;;;7.68;100.00;98680.75;5015189;28;20021;-75
2023/05/01 01:29:58;;;;;;;11.43;5.80;;;;;;;7.69;100.00;98685.09;5029911;28;20029;-74
2023/05/01 01:32:45;;;;;;;9.70;5.85;;;;;;;7.67;100.00;98679.88;5026635;28;20125;-75
2023/05/01 01:35:18;;;;;;;10.63;5.82;;;;;;;7.64;100.00;98682.97;5032295;28;20033;-74
2023/05/01 01:38:15;;;;;;;13.13;5.97;;;;;;;7.61;100.00;98672.56;5011156;28;20458;-75
2023/05/01 01:40:56;;;;;;;11.80;6.60;;;;;;;7.52;100.00;98671.03;5006110;28;20136;-74
2023/05/01 01:43:25;;;;;;;11.32;6.32;;;;;;;7.50;100.00;98662.28;5027692;28;20036;-74
2023/05/01 01:45:57;;;;;;;10.50;5.85;;;;;;;7.58;100.00;98674.81;5028238;28;20125;-75
2023/05/01 01:48:26;;;;;;;10.80;6.10;;;;;;;7.59;100.00;98677.31;5015006;28;20028;-74
2023/05/01 01:50:53;;;;;;;12.45;6.28;;;;;;;7.62;100.00;98681.47;5030975;28;20091;-74
2023/05/01 01:53:20;;;;;;;10.63;5.07;;;;;;;7.54;100.00;98668.94;5030363;28;20112;-73
2023/05/01 01:55:47;;;;;;;8.02;5.70;;;;;;;7.45;100.00;98659.31;5025240;28;20030;-74
2023/05/01 01:58:15;;;;;;;7.18;5.10;;;;;;;7.48;100.00;98675.09;5028544;28;20025;-74
2023/05/01 02:00:44;;;;;;;7.50;5.35;;;;;;;7.52;100.00;98670.16;5033544;28;20021;-74
2023/05/01 02:03:10;;;;;;;7.80;5.22;;;;;;;7.40;100.00;98667.13;5034391;28;20026;-74
2023/05/01 02:05:39;;;;;;;7.80;5.53;;;;;;;7.46;100.00;98679.81;5033171;28;20037;-74
2023/05/01 02:08:05;;;;;;;10.20;5.93;;;;;;;7.32;100.00;98659.97;5028700;28;20108;-75
2023/05/01 02:10:32;;;;;;;9.02;6.05;;;;;;;7.32;100.00;98677.97;5031033;28;20036;-75
2023/05/01 02:12:58;;;;;;;8.45;5.65;;;;;;;7.29;100.00;98664.91;5030003;28;20383;-74
2023/05/01 02:15:25;;;;;;;9.27;5.70;;;;;;;7.23;100.00;98669.16;5031537;28;20037;-74
2023/05/01 02:17:51;;;;;;;9.80;5.80;;;;;;;7.33;100.00;98663.50;5027725;28;20033;-75
2023/05/01 02:20:17;;;;;;;10.18;6.07;;;;;;;7.21;100.00;98655.91;5033930;28;20068;-74
2023/05/01 02:22:45;;;;;;;9.93;6.50;;;;;;;7.28;100.00;98650.59;5030234;28;20045;-74
2023/05/01 02:25:12;;;;;;;10.18;6.43;;;;;;;7.33;100.00;98655.41;5034093;28;20522;-74
2023/05/01 02:27:42;;;;;;;9.35;6.32;;;;;;;7.31;100.00;98663.69;5024409;28;20483;-75
2023/05/01 02:30:08;;;;;;;11.55;6.22;;;;;;;7.39;100.00;98647.44;5017985;28;20044;-77
2023/05/01 02:32:34;;;;;;;9.50;6.15;;;;;;;7.34;100.00;98657.09;5035463;28;20033;-75
2023/05/01 02:35:00;;;;;;;11.02;6.65;;;;;;;7.28;100.00;98653.28;5044740;28;20025;-75
2023/05/01 02:37:26;;;;;;;9.82;6.78;;;;;;;7.38;100.00;98644.94;5033413;28;20013;-74
2023/05/01 02:39:52;;;;;;;12.52;6.20;;;;;;;7.41;100.00;98647.25;5049724;28;20105;-74
2023/05/01 02:42:20;;;;;;;11.07;5.85;;;;;;;7.42;100.00;98651.63;5044440;28;20468;-76
2023/05/01 02:44:52;;;;;;;10.57;6.20;;;;;;;7.46;100.00;98655.59;5042940;28;20073;-74
2023/05/01 02:47:21;;;;;;;10.88;5.63;;;;;;;7.41;100.00;98647.25;5038248;28;20030;-76
2023/05/01 02:49:47;;;;;;;9.10;6.28;;;;;;;7.36;100.00;98638.91;5032483;28;20048;-74
2023/05/01 02:52:15;;;;;;;10.50;6.35;;;;;;;7.34;100.00;98635.59;5055583;28;20060;-77
2023/05/01 02:54:44;;;;;;;11.63;7.00;;;;;;;7.28;100.00;98629.06;5109188;22;20049;-75
2023/05/01 02:57:09;;;;;;;12.75;6.82;;;;;;;7.34;100.00;98627.50;5047933;28;20389;-75
2023/05/01 02:59:35;;;;;;;10.90;5.97;;;;;;;7.41;100.00;98609.56;5053480;28;20025;-75
2023/05/01 03:02:00;;;;;;;9.75;6.63;;;;;;;7.50;100.00;98616.53;5038972;28;20029;-75
2023/05/01 03:04:26;;;;;;;11.05;6.75;;;;;;;7.54;100.00;98622.34;5033400;28;20036;-76
2023/05/01 03:06:53;;;;;;;12.05;7.35;;;;;;;7.56;100.00;98620.31;5033577;28;20024;-75
2023/05/01 03:09:18;;;;;;;9.15;6.30;;;;;;;7.55;100.00;98611.41;5019987;28;20025;-77
2023/05/01 03:11:43;;;;;;;13.77;6.30;;;;;;;7.52;100.00;98611.78;5033142;28;20084;-75
2023/05/01 03:14:10;;;;;;;11.15;6.05;;;;;;;7.59;100.00;98628.84;5028992;28;20025;-76
2023/05/01 03:16:35;;;;;;;9.00;5.30;;;;;;;7.54;100.00;98631.25;5023167;28;20031;-76
2023/05/01 03:19:00;;;;;;;9.32;5.97;;;;;;;7.52;100.00;98627.94;5023106;28;20112;-76
2023/05/01 03:21:26;;;;;;;8.43;5.65;;;;;;;7.31;100.00;98598.25;5031652;28;20021;-77
2023/05/01 03:23:51;;;;;;;8.63;5.88;;;;;;;7.32;100.00;98616.09;5009210;28;20032;-76
2023/05/01 03:26:16;;;;;;;9.20;5.65;;;;;;;7.36;100.00;98612.84;5031385;28;20064;-76
2023/05/01 03:28:42;;;;;;;8.65;5.30;;;;;;;7.36;100.00;98604.78;5031959;28;20025;-75
2023/05/01 03:31:07;;;;;;;8.98;5.80;;;;;;;7.47;100.00;98625.81;5031943;28;20052;-75
2023/05/01 03:33:32;;;;;;;7.38;5.32;;;;;;;7.29;100.00;98595.75;5029475;28;20108;-75
2023/05/01 03:36:02;;;;;;;7.20;5.30;;;;;;;7.41;100.00;98618.50;5014550;28;20018;-75
2023/05/01 03:38:28;;;;;;;9.90;5.65;;;;;;;7.36;100.00;98601.22;5020149;28;20483;-75
2023/05/01 03:40:53;;;;;;;12.48;6.40;;;;;;;7.41;100.00;98601.50;5033269;28;20040;-76
2023/05/01 03:43:18;;;;;;;8.43;5.82;;;;;;;7.43;100.00;98597.59;5013659;28;20449;-75
2023/05/01 03:45:44;;;;;;;8.70;6.00;;;;;;;7.43;100.00;98591.38;5031359;28;20029;-75
2023/05/01 03:48:09;;;;;;;9.00;5.72;;;;;;;7.42;100.00;98590.53;5015454;28;20033;-77
2023/05/01 03:50:34;;;;;;;8.05;5.75;;;;;;;7.46;100.00;98589.13;5032484;28;20025;-75
2023/05/01 03:52:59;;;;;;;10.18;6.03;;;;;;;7.58;100.00;98602.94;5030656;28;20036;-75
2023/05/01 03:55:25;;;;;;;8.18;5.25;;;;;;;7.49;100.00;98577.16;5010529;28;20418;-75
2023/05/01 03:57:51;;;;;;;8.05;5.47;;;;;;;7.59;100.00;98576.84;5029102;28;20021;-76
2023/05/01 04:00:17;;;;;;;9.50;6.00;;;;;;;7.47;100.00;98560.38;5030702;28;20022;-76
2023/05/01 04:02:42;;;;;;;10.73;5.78;;;;;;;7.73;100.00;98597.53;5023897;28;20030;-76
2023/05/01 04:05:08;;;;;;;8.40;5.60;;;;;;;7.72;100.00;98585.09;5031464;28;20044;-77
2023/05/01 04:07:33;;;;;;;9.15;5.93;;;;;;;7.81;100.00;98578.56;5030512;28;20029;-76
2023/05/01 04:09:58;;;;;;;10.25;4.97;;;;;;;7.83;100.00;98595.38;5025231;28;20021;-76
2023/05/01 04:12:24;;;;;;;7.55;5.20;;;;;;;7.78;100.00;98578.09;5029813;28;20036;-78
2023/05/01 04:14:49;;;;;;;8.75;5.50;;;;;;;7.94;100.00;98599.41;5019128;28;20113;-76
2023/05/01 04:17:14;;;;;;;6.13;4.70;;;;;;;7.84;100.00;98575.50;5012541;28;20483;-75
2023/05/01 04:19:40;;;;;;;8.40;5.47;;;;;;;7.92;100.00;98577.22;5008067;28;20033;-76
2023/05/01 04:22:05;;;;;;;7.03;4.70;;;;;;;8.05;100.00;98600.78;5029063;28;20500;-76
2023/05/01 04:24:31;;;;;;;6.45;4.47;;;;;;;7.92;100.00;98579.09;5030413;28;20083;-78
2023/05/01 04:26:57;;;;;;;10.77;4.85;;;;;;;8.07;100.00;98599.56;5020287;28;20075;-76
2023/05/01 04:29:22;;;;;;;9.40;4.78;;;;;;;8.04;100.00;98578.38;5031621;28;20080;-76
2023/05/01 04:31:48;;;;;;;7.32;5.07;;;;;;;8.12;100.00;98602.50;5031470;28;20434;-76
2023/05/01 04:34:13;;;;;;;8.57;5.63;;;;;;;8.05;100.00;98579.22;5021285;28;20025;-77
2023/05/01 04:36:39;;;;;;;6.45;4.47;;;;;;;7.97;100.00;98564.00;5010104;28;20033;-79
2023/05/01 04:39:05;;;;;;;7.20;4.72;;;;;;;8.17;100.00;98582.22;5036207;28;20478;-76
2023/05/01 04:41:30;;;;;;;8.00;4.97;;;;;;;8.30;100.00;98596.63;5022422;28;20017;-76
2023/05/01 04:43:55;;;;;;;6.25;4.32;;;;;;;8.19;100.00;98581.00;5033057;28;20123;-76
2023/05/01 04:46:21;;;;;;;7.28;5.03;;;;;;;8.23;100.00;98586.84;5037179;28;20052;-78
2023/05/01 04:48:46;;;;;;;8.23;5.40;;;;;;;8.20;100.00;98554.88;5014256;28;20025;-77
2023/05/01 04:51:11;;;;;;;9.55;5.55;;;;;;;8.35;100.00;98575.31;5019181;28;20442;-76
2023/05/01 04:53:37;;;;;;;6.07;4.35;;;;;;;8.43;100.00;98568.16;5014045;28;20469;-76
2023/05/01 04:56:02;;;;;;;8.38;4.38;;;;;;;8.61;100.00;98575.78;5032966;28;20711;-78
2023/05/01 04:58:28;;;;;;;6.78;4.47;;;;;;;8.80;100.00;98575.06;5008539;28;20116;-77
2023/05/01 05:00:53;;;;;;;6.72;4.65;;;;;;;8.83;100.00;98571.13;5006603;28;20061;-76
2023/05/01 05:03:18;;;;;;;8.35;4.50;;;;;;;8.90;100.00;98567.44;5027529;28;20441;-75
2023/05/01 05:05:47;;;;;;;6.05;4.30;;;;;;;8.91;100.00;98581.81;5029367;28;20057;-71
2023/05/01 05:08:12;;;;;;;6.68;4.30;;;;;;;8.96;100.00;98563.13;5023972;28;20026;-71
2023/05/01 05:10:38;;;;;;;5.07;3.53;;;;;;;9.02;100.00;98558.81;5015826;28;20044;-72
2023/05/01 05:13:03;;;;;;;7.15;4.22;;;;;;;9.09;100.00;98571.31;5004839;28;20115;-73
2023/05/01 05:15:28;;;;;;;8.80;4.50;;;;;;;9.07;100.00;98564.47;5005499;28;20028;-74
2023/05/01 05:17:53;;;;;;;6.10;4.05;;;;;;;9.15;100.00;98566.97;5017393;28;20056;-74
2023/05/01 05:20:19;;;;;;;7.65;4.22;;;;;;;9.44;100.00;98580.19;5018344;28;20044;-73
2023/05/01 05:22:44;;;;;;;4.68;3.63;;;;;;;9.32;100.00;98538.59;5028946;28;20021;-73
2023/05/01 05:25:09;;;;;;;6.00;4.13;;;;;;;9.43;100.00;98546.13;5027986;28;20036;-74
2023/05/01 05:27:36;;;;;;;4.80;3.42;;;;;;;9.71;100.00;98571.34;5012227;28;20143;-74
2023/05/01 05:30:03;;;;;;;5.72;3.88;;;;;;;9.75;100.00;98546.44;5011617;28;20176;-72
2023/05/01 05:32:29;;;;;;;5.63;3.55;;;;;;;9.79;100.00;98547.66;5009917;28;20037;-72
2023/05/01 05:34:55;;;;;;;4.70;3.47;;;;;;;10.09;100.00;98550.03;5025326;28;20029;-71
2023/05/01 05:37:20;;;;;;;5.53;3.60;;;;;;;10.29;100.00;98545.47;5030949;28;20029;-75
2023/05/01 05:39:45;;;;;;;4.90;3.47;;;;;;;10.45;100.00;98525.31;5025269;28;20025;-74
2023/05/01 05:42:11;;;;;;;5.97;3.38;;;;;;;10.78;100.00;98543.34;5030868;28;20483;-75
2023/05/01 05:44:37;;;;;;;7.57;3.33;;;;;;;10.99;100.00;98536.84;5016834;28;20029;-78
2023/05/01 05:47:03;;;;;;;8.68;3.88;;;;;;;11.10;100.00;98549.72;5031718;28;20403;-77
2023/05/01 05:49:29;;;;;;;4.20;3.08;;;;;;;10.96;100.00;98515.63;5014493;28;20036;-76
2023/05/01 05:51:55;;;;;;;4.00;3.00;;;;;;;11.24;100.00;98552.38;5017756;28;20117;-77
2023/05/01 05:54:20;;;;;;;6.00;3.03;;;;;;;11.34;100.00;98556.34;5033206;28;20132;-78
2023/05/01 05:56:45;;;;;;;7.18;3.20;;;;;;;11.25;100.00;98543.25;5043338;28;20091;-78
2023/05/01 05:59:11;;;;;;;6.05;3.28;;;;;;;11.37;100.00;98549.63;5014429;28;20050;-73
2023/05/01 06:01:36;;;;;;;6.15;3.58;;;;;;;11.41;100.00;98561.72;5036817;28;20028;-78
2023/05/01 06:04:15;;;;;;;5.18;2.80;;;;;;;11.48;100.00;98556.28;5044222;28;20093;-84
2023/05/01 06:06:40;;;;;;;5.20;3.22;;;;;;;11.18;100.00;98519.69;4998418;28;20060;-78
2023/05/01 06:09:07;;;;;;;6.10;3.42;;;;;;;11.47;100.00;98558.13;5024279;28;20038;-73
2023/05/01 06:11:33;;;;;;;5.00;3.22;;;;;;;11.31;100.00;98556.72;5016098;28;20033;-71
2023/05/01 06:13:59;;;;;;;5.88;3.17;;;;;;;11.16;100.00;98548.91;5023981;28;20025;-71
2023/05/01 06:16:24;;;;;;;4.97;3.85;;;;;;;11.23;100.00;98565.09;5028449;28;20471;-71
2023/05/01 06:18:49;;;;;;;5.60;3.53;;;;;;;11.10;100.00;98540.78;5022644;28;20034;-71
2023/05/01 06:21:15;;;;;;;4.78;3.05;;;;;;;11.17;100.00;98566.78;5033103;28;20084;-71
2023/05/01 06:23:40;;;;;;;4.43;3.13;;;;;;;11.10;100.00;98560.56;5030459;28;21090;-70
2023/05/01 06:26:06;;;;;;;6.68;3.20;;;;;;;11.26;100.00;98561.97;5005092;28;20080;-71
2023/05/01 06:28:32;;;;;;;4.70;3.08;;;;;;;11.25;100.00;98546.78;5033646;28;20060;-70
2023/05/01 06:30:57;;;;;;;5.60;2.97;;;;;;;11.46;100.00;98561.91;5021552;28;20053;-71
2023/05/01 06:33:22;;;;;;;4.43;3.05;;;;;;;11.57;100.00;98563.91;5034116;28;20021;-71
2023/05/01 06:35:48;;;;;;;4.90;3.53;;;;;;;11.56;100.00;98547.91;5024982;28;20025;-71
2023/05/01 06:38:13;;;;;;;4.28;3.17;;;;;;;11.67;100.00;98568.06;5024102;28;20040;-76
2023/05/01 06:40:39;;;;;;;5.50;3.55;;;;;;;11.82;100.00;98553.16;5030699;28;20376;-77
2023/05/01 06:43:04;;;;;;;5.38;3.05;;;;;;;11.74;100.00;98553.44;5045344;28;20033;-77
2023/05/01 06:45:30;;;;;;;5.50;3.50;;;;;;;11.90;100.00;98554.00;5044768;28;20032;-76
2023/05/01 06:47:56;;;;;;;8.20;3.38;;;;;;;12.11;100.00;98560.97;5047264;28;20025;-79
2023/05/01 06:50:21;;;;;;;8.02;3.40;;;;;;;12.19;100.00;98568.81;5028075;28;20044;-75
2023/05/01 06:52:46;;;;;;;5.40;3.03;;;;;;;12.40;100.00;98575.75;5011826;28;20060;-75
2023/05/01 06:55:11;;;;;;;5.32;3.45;;;;;;;12.52;100.00;98546.84;5029692;28;20513;-76
2023/05/01 06:57:38;;;;;;;4.72;2.90;;;;;;;12.48;100.00;98541.03;5031628;28;20036;-76
2023/05/01 07:00:05;;;;;;;5.15;2.92;;;;;;;12.81;100.00;98577.06;5032332;28;20052;-74
2023/05/01 07:02:30;;;;;;;4.38;3.15;;;;;;;12.92;100.00;98577.16;5032931;28;20097;-74
2023/05/01 07:04:55;;;;;;;3.78;2.90;;;;;;;13.09;100.00;98573.88;5030474;28;20550;-77
2023/05/01 07:07:21;;;;;;;8.60;3.30;;;;;;;13.20;100.00;98567.66;5018555;28;20034;-77
2023/05/01 07:09:46;;;;;;;4.95;3.70;;;;;;;13.23;100.00;98583.56;5014271;28;20037;-76
2023/05/01 07:12:12;;;;;;;4.35;3.17;;;;;;;13.15;100.00;98575.66;5016602;28;20096;-76
2023/05/01 07:14:37;;;;;;;3.97;3.22;;;;;;;13.30;100.00;98588.94;5017726;28;20442;-75
2023/05/01 07:17:02;;;;;;;4.88;3.33;;;;;;;13.34;100.00;98574.66;5031941;28;20433;-72
2023/05/01 07:19:28;;;;;;;7.57;3.80;;;;;;;13.57;100.00;98594.88;5029753;28;20554;-72
2023/05/01 07:21:53;;;;;;;4.00;3.03;;;;;;;13.62;100.00;98584.13;5030223;28;20048;-72
2023/05/01 07:24:20;;;;;;;5.25;3.58;;;;;;;13.81;100.00;98583.06;5030005;28;20021;-72
2023/05/01 07:26:45;;;;;;;7.30;3.55;;;;;;;13.58;100.00;98582.94;5029077;28;20128;-76
2023/05/01 07:29:12;;;;;;;5.25;3.08;;;;;;;13.67;100.00;98581.56;5010554;28;20169;-82
2023/05/01 07:31:38;;;;;;;8.02;3.30;;;;;;;13.75;100.00;98575.84;5026244;28;20037;-80
2023/05/01 07:34:03;;;;;;;4.65;2.75;;;;;;;13.79;100.00;98566.16;5028843;28;20063;-75
2023/05/01 07:36:29;;;;;;;5.50;3.25;;;;;;;14.18;100.00;98585.69;5008610;28;20402;-77
2023/05/01 07:38:56;;;;;;;5.43;3.13;;;;;;;14.55;100.00;98580.13;5010089;28;20080;-74
2023/05/01 07:41:23;;;;;;;5.47;3.10;;;;;;;14.68;100.00;98560.84;5014519;28;20017;-75
2023/05/01 07:43:48;;;;;;;4.75;3.30;;;;;;;14.71;100.00;98567.72;5020129;28;20029;-75
2023/05/01 07:46:14;;;;;;;5.15;3.35;;;;;;;14.03;100.00;98572.50;5027430;28;20080;-75
2023/05/01 07:48:39;;;;;;;4.38;3.08;;;;;;;13.85;100.00;98552.69;5012313;28;20140;-75
2023/05/01 07:51:05;;;;;;;5.07;3.22;;;;;;;13.98;100.00;98552.50;5031853;28;20029;-75
2023/05/01 07:53:30;;;;;;;7.07;3.30;;;;;;;13.77;100.00;98557.38;5030865;28;20075;-75
2023/05/01 07:56:07;;;;;;;6.05;3.00;;;;;;;14.11;100.00;98582.22;5026881;28;20495;-77
2023/05/01 07:58:33;;;;;;;5.50;3.17;;;;;;;14.01;100.00;98562.91;5018891;28;20147;-75
2023/05/01 08:00:59;;;;;;;5.32;2.83;;;;;;;13.82;100.00;98564.84;5015388;28;20025;-76
2023/05/01 08:03:27;;;;;;;4.13;3.05;;;;;;;13.83;100.00;98577.38;5028350;28;20030;-77
2023/05/01 08:05:52;;;;;;;4.68;2.95;;;;;;;13.80;100.00;98586.84;5026511;28;20387;-77
2023/05/01 08:08:20;;;;;;;3.35;2.70;;;;;;;13.90;100.00;98580.03;5017986;28;20120;-73
2023/05/01 08:10:46;;;;;;;5.78;3.30;;;;;;;13.86;100.00;98576.09;5030322;28;20025;-80
2023/05/01 08:13:11;;;;;;;5.47;3.08;;;;;;;13.89;100.00;98559.34;5020263;28;20174;-80
2023/05/01 08:15:37;;;;;;;5.32;2.92;;;;;;;14.06;100.00;98565.78;5009047;28;20021;-82
2023/05/01 08:18:03;;;;;;;7.22;3.53;;;;;;;14.17;100.00;98570.44;5027499;28;20538;-81
2023/05/01 08:20:29;;;;;;;5.20;2.97;;;;;;;14.38;100.00;98579.09;5006784;28;20033;-74
2023/05/01 08:22:54;;;;;;;4.20;2.70;;;;;;;14.09;100.00;98559.84;5026812;28;20025;-73
2023/05/01 08:25:20;;;;;;;5.35;2.97;;;;;;;14.08;100.00;98568.28;5027169;28;20080;-74
2023/05/01 08:27:45;;;;;;;5.70;2.60;;;;;;;14.22;100.00;98567.00;5030260;28;20033;-74
2023/05/01 08:30:10;;;;;;;4.43;2.95;;;;;;;14.00;100.00;98561.25;5007468;28;20044;-74
2023/05/01 08:32:36;;;;;;;5.45;2.70;;;;;;;13.93;100.00;98560.53;5015855;28;20040;-74
2023/05/01 08:35:01;;;;;;;5.70;3.20;;;;;;;13.78;100.00;98550.91;5027724;28;20025;-74
2023/05/01 08:37:26;;;;;;;4.28;3.10;;;;;;;14.16;100.00;98566.03;5015085;28;20398;-74
2023/05/01 08:39:53;;;;;;;5.10;3.15;;;;;;;14.27;100.00;98549.97;5022441;28;20056;-76
2023/05/01 08:42:18;;;;;;;4.43;3.13;;;;;;;14.36;100.00;98552.13;5030859;28;20029;-77
2023/05/01 08:44:45;;;;;;;4.75;3.38;;;;;;;14.50;100.00;98562.81;5030395;28;20425;-69
2023/05/01 08:47:16;;;;;;;6.03;3.38;;;;;;;14.31;100.00;98559.34;5029937;28;20033;-69
2023/05/01 08:49:43;;;;;;;4.68;3.42;;;;;;;14.44;100.00;98567.28;5024198;28;20029;-69
2023/05/01 08:52:13;;;;;;;4.65;3.03;;;;;;;14.58;100.00;98552.41;5015959;28;20033;-69
2023/05/01 08:54:42;;;;;;;5.38;3.22;;;;;;;14.86;100.00;98576.25;5023436;28;20076;-69
2023/05/01 08:57:09;;;;;;;5.60;3.35;;;;;;;15.02;100.00;98560.25;5025858;28;20036;-70
2023/05/01 08:59:35;;;;;;;8.07;3.63;;;;;;;15.12;100.00;98565.94;5029153;28;20037;-69
2023/05/01 09:02:03;;;;;;;5.68;3.22;;;;;;;15.31;100.00;98569.34;5026801;28;20124;-69
2023/05/01 09:04:32;;;;;;;5.35;3.45;;;;;;;15.65;100.00;98567.59;5030805;28;20025;-69
2023/05/01 09:07:00;;;;;;;4.72;3.17;;;;;;;15.32;100.00;98555.44;5033537;28;20033;-69
2023/05/01 09:09:26;;;;;;;7.40;3.55;;;;;;;15.69;100.00;98559.78;5025279;28;20029;-69
2023/05/01 09:12:14;;;;;;;5.15;3.45;;;;;;;15.48;100.00;98556.63;5024460;28;20068;-69
2023/05/01 09:14:39;;;;;;;5.10;3.58;;;;;;;15.72;100.00;98565.59;5018653;28;20040;-70
2023/05/01 09:17:05;;;;;;;6.80;3.38;;;;;;;16.16;100.00;98570.47;5020258;28;20022;-69
2023/05/01 09:19:30;;;;;;;5.13;3.53;;;;;;;16.60;100.00;98573.44;5029868;28;20025;-69
2023/05/01 09:21:56;;;;;;;5.35;2.90;;;;;;;17.13;95.50;98568.53;5049822;22;20037;-71
2023/05/01 09:24:24;;;;;;;4.45;3.38;;;;;;;16.91;95.54;98576.69;5003690;28;20040;-72
2023/05/01 09:26:50;;;;;;;4.27;3.20;;;;;;;17.26;90.30;98577.19;5014172;28;20064;-72
2023/05/01 09:29:44;;;;;;;5.15;3.33;;;;;;;17.73;89.84;98581.34;5000688;28;20038;-72
2023/05/01 09:32:21;;;;;;;5.60;3.20;;;;;;;17.37;89.07;98577.31;5004799;28;20034;-72
2023/05/01 09:34:48;;;;;;;5.57;2.90;;;;;;;18.07;89.63;98575.75;4999715;28;20089;-72
2023/05/01 09:37:33;;;;;;;4.43;3.63;;;;;;;18.61;81.64;98589.41;5014596;28;20049;-72
2023/05/01 09:40:05;;;;;;;5.15;3.53;;;;;;;19.91;75.66;98583.38;5014319;28;20046;-72
2023/05/01 09:42:32;;;;;;;5.35;3.30;;;;;;;20.62;70.14;98579.16;5004547;28;20026;-72
2023/05/01 09:45:02;;;;;;;5.40;3.85;;;;;;;20.55;68.71;98570.34;5012900;28;20037;-72
2023/05/01 09:47:28;;;;;;;6.32;3.08;;;;;;;21.40;64.55;98562.25;5012903;28;20112;-72
2023/05/01 09:49:58;;;;;;;6.80;3.40;;;;;;;21.50;66.01;98569.66;5010803;28;20118;-72
2023/05/01 09:52:28;;;;;;;4.00;3.20;;;;;;;22.14;60.87;98567.16;5010683;28;20045;-72
2023/05/01 09:55:16;;;;;;;4.05;2.95;;;;;;;21.70;60.68;98568.78;5007021;28;20034;-72
2023/05/01 09:57:43;;;;;;;5.35;3.10;;;;;;;20.26;64.94;98568.09;5014278;28;20026;-72
2023/05/01 10:00:14;;;;;;;4.45;3.10;;;;;;;20.15;68.62;98555.44;5006310;28;20471;-72
2023/05/01 10:02:41;;;;;;;3.65;2.80;;;;;;;20.27;70.33;98563.41;5002946;28;20025;-73
2023/05/01 10:05:09;;;;;;;6.80;3.53;;;;;;;20.72;67.33;98554.41;5006276;28;20042;-73
2023/05/01 10:07:34;;;;;;;4.65;3.13;;;;;;;20.83;63.87;98555.22;5010517;28;20082;-73
2023/05/01 10:10:20;;;;;;;4.32;3.08;;;;;;;22.39;64.33;98561.50;4990438;28;20705;-73
2023/05/01 10:12:46;;;;;;;5.63;3.38;;;;;;;23.43;60.28;98543.75;5014573;28;20034;-73
2023/05/01 10:15:11;;;;;;;4.32;3.00;;;;;;;23.53;59.11;98551.91;4998327;28;20036;-74
2023/05/01 10:17:38;;;;;;;4.97;2.85;;;;;;;25.63;55.16;98553.31;5006023;28;20034;-74
2023/05/01 10:20:11;;;;;;;3.90;3.17;;;;;;;25.92;53.13;98555.78;4991993;28;20482;-73
2023/05/01 10:22:37;;;;;;;5.15;2.85;;;;;;;25.08;51.83;98549.34;5008648;28;20097;-75
2023/05/01 10:25:06;;;;;;;5.03;3.47;;;;;;;23.57;55.34;98558.47;5017466;28;20092;-73
2023/05/01 10:27:32;;;;;;;;;;;;;;;24.07;55.69;98555.38;5017410;28;20525;-71
2023/05/01 10:30:03;;;;;;;4.70;3.40;;;;;;;24.13;53.73;98551.44;5013595;28;19977;-71
2023/05/01 10:32:31;;;;;;;4.15;2.50;;;;;;;24.78;55.15;98550.69;5016788;28;20052;-72
2023/05/01 10:35:00;;;;;;;4.90;2.80;;;;;;;25.53;53.01;98560.69;5010150;28;20064;-73
2023/05/01 10:37:36;;;;;;;5.30;2.97;;;;;;;25.53;49.42;98559.88;5014258;28;20108;-73
2023/05/01 10:40:43;;;;;;;4.57;3.28;;;;;;;23.50;50.11;98559.94;5008029;28;20452;-73
2023/05/01 10:43:15;;;;;;;7.38;3.33;;;;;;;24.24;50.83;98552.91;4998553;28;20050;-73
2023/05/01 10:45:42;;;;;;;4.22;2.92;;;;;;;26.07;50.56;98554.59;5006464;28;20057;-73
2023/05/01 10:48:08;;;;;;;5.75;2.90;;;;;;;26.01;48.85;98551.94;4986651;28;20120;-73
2023/05/01 10:50:33;;;;;;;4.00;2.83;;;;;;;26.38;47.57;98547.25;5003556;28;20163;-73
2023/05/01 10:53:11;;;;;;;3.38;2.65;;;;;;;25.41;49.95;98551.25;5002730;28;20492;-73
2023/05/01 10:55:36;;;;;;;2.95;2.63;;;;;;;24.83;49.61;98542.31;5009021;28;20030;-73
2023/05/01 10:58:02;;;;;;;3.80;2.63;;;;;;;24.47;50.48;98544.84;4997301;28;20033;-73
2023/05/01 11:00:28;;;;;;;5.07;2.90;;;;;;;24.12;52.30;98543.44;5010911;28;20022;-73
2023/05/01 11:03:21;;;;;;;5.00;2.88;;;;;;;22.86;53.38;98540.72;5005938;28;20357;-73
2023/05/01 11:05:58;;;;;;;4.45;3.10;;;;;;;22.73;54.05;98544.16;5007054;28;20042;-73
2023/05/01 11:08:36;;;;;;;4.32;3.03;;;;;;;22.19;56.02;98540.44;5008121;28;20029;-73
2023/05/01 11:11:20;;;;;;;5.45;3.38;;;;;;;22.93;55.59;98541.22;5008066;28;20029;-74
2023/05/01 11:14:04;;;;;;;4.53;3.15;;;;;;;23.38;55.78;98538.28;5011639;28;20034;-73
2023/05/01 11:16:40;;;;;;;5.47;3.63;;;;;;;23.36;55.92;98537.75;4995203;28;20437;-71
2023/05/01 11:19:32;;;;;;;5.00;3.63;;;;;;;23.11;57.01;98533.34;5000358;28;20033;-73
2023/05/01 11:21:57;;;;;;;3.80;3.10;;;;;;;23.27;56.69;98529.31;5000454;28;20196;-73
2023/05/01 11:24:31;;;;;;;4.63;3.35;;;;;;;24.30;54.84;98527.97;5011825;28;20530;-73
2023/05/01 11:26:58;;;;;;;5.38;3.10;;;;;;;25.09;54.10;98528.84;5010114;28;20029;-71
2023/05/01 11:29:30;;;;;;;5.22;3.28;;;;;;;25.45;52.77;98511.56;4994293;28;20057;-71
2023/05/01 11:31:56;;;;;;;5.85;3.53;;;;;;;25.77;51.36;98515.31;5012486;28;20026;-72